sensor_id;sensor_type;location;lat;lon;timestamp;pressure;altitude;pressure_sealevel;temperature;humidity
38900;BME280;24660;43.238;26.576;2022-08-14T00:02:04;98589.00;;;21.28;78.27
38900;BME280;24660;43.238;26.576;2022-08-14T00:04:30;98586.47;;;21.33;78.28
38900;BME280;24660;43.238;26.576;2022-08-14T00:06:56;98578.09;;;21.41;77.81
38900;BME280;24660;43.238;26.576;2022-08-14T00:09:22;98573.53;;;21.28;78.07
38900;BME280;24660;43.238;26.576;2022-08-14T00:11:47;98581.25;;;21.31;78.16
38900;BME280;24660;43.238;26.576;2022-08-14T00:14:13;98579.13;;;21.33;77.72
38900;BME280;24660;43.238;26.576;2022-08-14T00:16:38;98587.47;;;21.45;77.41
38900;BME280;24660;43.238;26.576;2022-08-14T00:19:03;98581.16;;;21.51;77.37
38900;BME280;24660;43.238;26.576;2022-08-14T00:21:28;98578.31;;;21.40;77.75
38900;BME280;24660;43.238;26.576;2022-08-14T00:23:54;98574.75;;;21.19;78.19
38900;BME280;24660;43.238;26.576;2022-08-14T00:26:21;98566.81;;;21.18;78.83
38900;BME280;24660;43.238;26.576;2022-08-14T00:28:46;98565.53;;;21.33;78.32
38900;BME280;24660;43.238;26.576;2022-08-14T00:31:11;98565.72;;;21.39;78.01
38900;BME280;24660;43.238;26.576;2022-08-14T00:33:38;98573.28;;;21.23;78.75
38900;BME280;24660;43.238;26.576;2022-08-14T00:36:04;98562.44;;;21.10;79.43
38900;BME280;24660;43.238;26.576;2022-08-14T00:38:29;98556.59;;;21.26;78.94
38900;BME280;24660;43.238;26.576;2022-08-14T00:40:55;98563.28;;;21.17;79.23
38900;BME280;24660;43.238;26.576;2022-08-14T00:43:20;98562.81;;;21.40;78.43
38900;BME280;24660;43.238;26.576;2022-08-14T00:45:46;98556.78;;;21.18;79.01
38900;BME280;24660;43.238;26.576;2022-08-14T00:48:11;98550.47;;;21.24;79.34
38900;BME280;24660;43.238;26.576;2022-08-14T00:50:36;98551.16;;;21.26;78.89
38900;BME280;24660;43.238;26.576;2022-08-14T00:53:02;98553.06;;;21.13;80.04
38900;BME280;24660;43.238;26.576;2022-08-14T00:55:28;98550.06;;;21.21;79.33
38900;BME280;24660;43.238;26.576;2022-08-14T00:57:55;98541.16;;;21.00;80.40
38900;BME280;24660;43.238;26.576;2022-08-14T01:00:36;98548.53;;;20.73;81.23
38900;BME280;24660;43.238;26.576;2022-08-14T01:03:03;98540.81;;;20.57;81.67
38900;BME280;24660;43.238;26.576;2022-08-14T01:05:29;98544.97;;;20.73;82.14
38900;BME280;24660;43.238;26.576;2022-08-14T01:07:54;98549.13;;;20.82;81.86
38900;BME280;24660;43.238;26.576;2022-08-14T01:10:24;98555.78;;;20.93;81.74
38900;BME280;24660;43.238;26.576;2022-08-14T01:13:09;98561.34;;;21.24;80.30
38900;BME280;24660;43.238;26.576;2022-08-14T01:15:34;98554.94;;;21.12;80.06
38900;BME280;24660;43.238;26.576;2022-08-14T01:18:00;98559.28;;;21.20;80.11
38900;BME280;24660;43.238;26.576;2022-08-14T01:20:40;98558.66;;;21.11;80.48
38900;BME280;24660;43.238;26.576;2022-08-14T01:23:21;98569.13;;;21.27;79.99
38900;BME280;24660;43.238;26.576;2022-08-14T01:25:47;98556.16;;;21.16;80.30
38900;BME280;24660;43.238;26.576;2022-08-14T01:28:13;98559.97;;;20.95;80.72
38900;BME280;24660;43.238;26.576;2022-08-14T01:30:38;98562.09;;;20.87;82.06
38900;BME280;24660;43.238;26.576;2022-08-14T01:33:04;98561.25;;;20.80;82.01
38900;BME280;24660;43.238;26.576;2022-08-14T01:35:30;98567.50;;;20.80;82.40
38900;BME280;24660;43.238;26.576;2022-08-14T01:37:56;98568.78;;;20.84;82.29
38900;BME280;24660;43.238;26.576;2022-08-14T01:40:22;98554.78;;;20.67;83.01
38900;BME280;24660;43.238;26.576;2022-08-14T01:42:48;98553.09;;;20.80;83.40
38900;BME280;24660;43.238;26.576;2022-08-14T01:45:13;98549.97;;;20.36;84.71
38900;BME280;24660;43.238;26.576;2022-08-14T01:47:39;98548.50;;;20.14;85.79
38900;BME280;24660;43.238;26.576;2022-08-14T01:50:05;98545.94;;;19.93;88.51
38900;BME280;24660;43.238;26.576;2022-08-14T01:52:32;98551.16;;;19.94;88.70
38900;BME280;24660;43.238;26.576;2022-08-14T01:54:58;98548.69;;;19.99;88.86
38900;BME280;24660;43.238;26.576;2022-08-14T01:57:23;98552.69;;;20.16;87.47
38900;BME280;24660;43.238;26.576;2022-08-14T01:59:48;98545.56;;;20.02;89.30
38900;BME280;24660;43.238;26.576;2022-08-14T02:02:14;98553.88;;;19.94;90.10
38900;BME280;24660;43.238;26.576;2022-08-14T02:04:39;98542.41;;;19.85;90.78
38900;BME280;24660;43.238;26.576;2022-08-14T02:07:05;98541.16;;;19.88;90.82
38900;BME280;24660;43.238;26.576;2022-08-14T02:09:31;98536.16;;;19.85;90.98
38900;BME280;24660;43.238;26.576;2022-08-14T02:11:59;98538.22;;;19.96;90.14
38900;BME280;24660;43.238;26.576;2022-08-14T02:14:25;98528.66;;;20.07;89.62
38900;BME280;24660;43.238;26.576;2022-08-14T02:16:50;98536.59;;;20.22;89.58
38900;BME280;24660;43.238;26.576;2022-08-14T02:19:18;98540.34;;;20.21;89.05
38900;BME280;24660;43.238;26.576;2022-08-14T02:21:44;98547.66;;;20.27;88.41
38900;BME280;24660;43.238;26.576;2022-08-14T02:24:10;98540.38;;;20.54;87.72
38900;BME280;24660;43.238;26.576;2022-08-14T02:26:37;98542.09;;;20.41;87.79
38900;BME280;24660;43.238;26.576;2022-08-14T02:29:05;98545.38;;;20.37;87.66
38900;BME280;24660;43.238;26.576;2022-08-14T02:31:32;98548.34;;;20.42;87.33
38900;BME280;24660;43.238;26.576;2022-08-14T02:33:58;98548.69;;;20.39;87.67
38900;BME280;24660;43.238;26.576;2022-08-14T02:36:24;98541.22;;;20.48;87.20
38900;BME280;24660;43.238;26.576;2022-08-14T02:38:49;98542.69;;;20.43;87.03
38900;BME280;24660;43.238;26.576;2022-08-14T02:41:15;98546.41;;;20.36;87.30
38900;BME280;24660;43.238;26.576;2022-08-14T02:43:41;98545.78;;;20.40;87.09
38900;BME280;24660;43.238;26.576;2022-08-14T02:46:07;98543.72;;;20.49;86.97
38900;BME280;24660;43.238;26.576;2022-08-14T02:48:35;98539.97;;;20.50;86.06
38900;BME280;24660;43.238;26.576;2022-08-14T02:51:02;98554.81;;;20.48;87.06
38900;BME280;24660;43.238;26.576;2022-08-14T02:53:29;98552.50;;;20.51;87.12
38900;BME280;24660;43.238;26.576;2022-08-14T02:55:55;98557.06;;;20.31;87.08
38900;BME280;24660;43.238;26.576;2022-08-14T02:58:22;98550.00;;;20.43;87.54
38900;BME280;24660;43.238;26.576;2022-08-14T03:00:47;98550.00;;;20.43;86.85
38900;BME280;24660;43.238;26.576;2022-08-14T03:03:13;98563.53;;;20.36;87.27
38900;BME280;24660;43.238;26.576;2022-08-14T03:05:40;98563.09;;;20.20;88.03
38900;BME280;24660;43.238;26.576;2022-08-14T03:08:06;98564.13;;;20.12;88.56
38900;BME280;24660;43.238;26.576;2022-08-14T03:10:32;98557.91;;;20.18;88.98
38900;BME280;24660;43.238;26.576;2022-08-14T03:13:00;98553.50;;;20.04;89.34
38900;BME280;24660;43.238;26.576;2022-08-14T03:15:28;98557.25;;;20.09;89.73
38900;BME280;24660;43.238;26.576;2022-08-14T03:17:53;98558.50;;;20.07;90.18
38900;BME280;24660;43.238;26.576;2022-08-14T03:20:18;98560.81;;;20.16;89.05
38900;BME280;24660;43.238;26.576;2022-08-14T03:22:45;98562.88;;;20.08;89.82
38900;BME280;24660;43.238;26.576;2022-08-14T03:25:10;98557.66;;;20.00;90.17
38900;BME280;24660;43.238;26.576;2022-08-14T03:27:36;98567.91;;;20.17;89.67
38900;BME280;24660;43.238;26.576;2022-08-14T03:30:02;98575.63;;;20.07;90.59
38900;BME280;24660;43.238;26.576;2022-08-14T03:32:28;98572.47;;;20.10;90.67
38900;BME280;24660;43.238;26.576;2022-08-14T03:34:58;98573.75;;;20.14;91.03
38900;BME280;24660;43.238;26.576;2022-08-14T03:37:23;98571.47;;;20.31;89.72
38900;BME280;24660;43.238;26.576;2022-08-14T03:39:51;98569.56;;;20.25;90.08
38900;BME280;24660;43.238;26.576;2022-08-14T03:42:16;98570.44;;;20.32;89.75
38900;BME280;24660;43.238;26.576;2022-08-14T03:44:41;98569.59;;;20.19;89.72
38900;BME280;24660;43.238;26.576;2022-08-14T03:47:08;98569.34;;;20.07;90.17
38900;BME280;24660;43.238;26.576;2022-08-14T03:49:33;98568.53;;;20.26;89.04
38900;BME280;24660;43.238;26.576;2022-08-14T03:51:59;98573.31;;;20.11;89.31
38900;BME280;24660;43.238;26.576;2022-08-14T03:54:29;98575.00;;;20.19;89.62
38900;BME280;24660;43.238;26.576;2022-08-14T03:56:54;98572.72;;;20.15;89.97
38900;BME280;24660;43.238;26.576;2022-08-14T03:59:24;98575.63;;;20.21;89.21
38900;BME280;24660;43.238;26.576;2022-08-14T04:01:50;98577.38;;;20.41;89.07
38900;BME280;24660;43.238;26.576;2022-08-14T04:04:19;98581.75;;;20.62;88.23
38900;BME280;24660;43.238;26.576;2022-08-14T04:06:44;98577.34;;;20.88;87.27
38900;BME280;24660;43.238;26.576;2022-08-14T04:09:10;98578.41;;;20.73;87.32
38900;BME280;24660;43.238;26.576;2022-08-14T04:11:36;98572.94;;;20.80;87.04
38900;BME280;24660;43.238;26.576;2022-08-14T04:14:02;98574.59;;;21.01;85.55
38900;BME280;24660;43.238;26.576;2022-08-14T04:16:28;98570.19;;;21.07;85.75
38900;BME280;24660;43.238;26.576;2022-08-14T04:18:55;98572.03;;;21.19;84.04
38900;BME280;24660;43.238;26.576;2022-08-14T04:21:21;98572.88;;;21.20;83.52
38900;BME280;24660;43.238;26.576;2022-08-14T04:23:49;98577.88;;;21.23;84.21
38900;BME280;24660;43.238;26.576;2022-08-14T04:26:15;98577.09;;;21.02;84.98
38900;BME280;24660;43.238;26.576;2022-08-14T04:28:43;98573.09;;;21.25;84.18
38900;BME280;24660;43.238;26.576;2022-08-14T04:31:09;98574.97;;;21.31;83.52
38900;BME280;24660;43.238;26.576;2022-08-14T04:33:35;98578.25;;;21.46;82.98
38900;BME280;24660;43.238;26.576;2022-08-14T04:36:00;98572.16;;;21.51;82.45
38900;BME280;24660;43.238;26.576;2022-08-14T04:38:26;98572.00;;;21.39;82.48
38900;BME280;24660;43.238;26.576;2022-08-14T04:41:07;98574.72;;;21.46;83.38
38900;BME280;24660;43.238;26.576;2022-08-14T04:43:48;98571.19;;;21.25;84.10
38900;BME280;24660;43.238;26.576;2022-08-14T04:46:14;98565.78;;;21.19;83.90
38900;BME280;24660;43.238;26.576;2022-08-14T04:48:40;98567.41;;;21.40;83.32
38900;BME280;24660;43.238;26.576;2022-08-14T04:51:07;98567.22;;;21.79;81.94
38900;BME280;24660;43.238;26.576;2022-08-14T04:53:33;98572.38;;;21.49;83.32
38900;BME280;24660;43.238;26.576;2022-08-14T04:55:59;98570.69;;;21.93;80.64
38900;BME280;24660;43.238;26.576;2022-08-14T04:58:25;98579.75;;;22.25;80.71
38900;BME280;24660;43.238;26.576;2022-08-14T05:00:51;98579.22;;;22.41;78.91
38900;BME280;24660;43.238;26.576;2022-08-14T05:03:18;98573.56;;;22.68;77.96
38900;BME280;24660;43.238;26.576;2022-08-14T05:05:46;98573.97;;;22.96;76.79
38900;BME280;24660;43.238;26.576;2022-08-14T05:08:12;98576.50;;;22.91;76.53
38900;BME280;24660;43.238;26.576;2022-08-14T05:10:40;98567.59;;;23.02;76.33
38900;BME280;24660;43.238;26.576;2022-08-14T05:13:06;98566.38;;;23.35;75.63
38900;BME280;24660;43.238;26.576;2022-08-14T05:15:32;98568.22;;;23.23;75.56
38900;BME280;24660;43.238;26.576;2022-08-14T05:18:00;98562.81;;;22.98;75.88
38900;BME280;24660;43.238;26.576;2022-08-14T05:20:26;98560.56;;;22.95;76.48
38900;BME280;24660;43.238;26.576;2022-08-14T05:22:51;98559.66;;;23.37;74.80
38900;BME280;24660;43.238;26.576;2022-08-14T05:25:19;98564.22;;;23.92;73.61
38900;BME280;24660;43.238;26.576;2022-08-14T05:27:45;98560.41;;;24.76;70.69
38900;BME280;24660;43.238;26.576;2022-08-14T05:30:10;98568.50;;;25.18;68.06
38900;BME280;24660;43.238;26.576;2022-08-14T05:32:36;98561.47;;;24.99;68.39
38900;BME280;24660;43.238;26.576;2022-08-14T05:35:02;98560.53;;;25.05;67.93
38900;BME280;24660;43.238;26.576;2022-08-14T05:37:28;98557.47;;;25.13;67.54
38900;BME280;24660;43.238;26.576;2022-08-14T05:39:54;98553.47;;;24.39;68.97
38900;BME280;24660;43.238;26.576;2022-08-14T05:42:19;98550.78;;;24.09;70.45
38900;BME280;24660;43.238;26.576;2022-08-14T05:44:46;98543.63;;;24.38;70.55
38900;BME280;24660;43.238;26.576;2022-08-14T05:47:11;98553.16;;;24.70;69.66
38900;BME280;24660;43.238;26.576;2022-08-14T05:49:36;98549.34;;;25.18;67.85
38900;BME280;24660;43.238;26.576;2022-08-14T05:52:02;98549.69;;;25.33;67.04
38900;BME280;24660;43.238;26.576;2022-08-14T05:54:27;98545.06;;;25.34;66.67
38900;BME280;24660;43.238;26.576;2022-08-14T05:56:53;98547.31;;;25.49;65.85
38900;BME280;24660;43.238;26.576;2022-08-14T05:59:18;98544.19;;;25.45;66.19
38900;BME280;24660;43.238;26.576;2022-08-14T06:01:43;98539.34;;;25.35;66.11
38900;BME280;24660;43.238;26.576;2022-08-14T06:04:08;98538.38;;;25.41;66.17
38900;BME280;24660;43.238;26.576;2022-08-14T06:06:34;98543.88;;;25.18;67.37
38900;BME280;24660;43.238;26.576;2022-08-14T06:08:59;98537.78;;;25.51;66.42
38900;BME280;24660;43.238;26.576;2022-08-14T06:11:24;98531.94;;;25.48;67.25
38900;BME280;24660;43.238;26.576;2022-08-14T06:13:51;98523.56;;;25.26;68.43
38900;BME280;24660;43.238;26.576;2022-08-14T06:16:16;98531.03;;;25.19;68.68
38900;BME280;24660;43.238;26.576;2022-08-14T06:18:41;98537.06;;;25.44;68.55
38900;BME280;24660;43.238;26.576;2022-08-14T06:21:07;98539.53;;;25.57;68.05
38900;BME280;24660;43.238;26.576;2022-08-14T06:23:32;98529.59;;;25.80;66.91
38900;BME280;24660;43.238;26.576;2022-08-14T06:25:58;98527.63;;;25.63;66.80
38900;BME280;24660;43.238;26.576;2022-08-14T06:28:24;98530.28;;;25.87;66.82
38900;BME280;24660;43.238;26.576;2022-08-14T06:30:50;98528.13;;;25.89;66.73
38900;BME280;24660;43.238;26.576;2022-08-14T06:33:16;98534.91;;;26.15;65.95
38900;BME280;24660;43.238;26.576;2022-08-14T06:35:42;98549.28;;;26.22;65.69
38900;BME280;24660;43.238;26.576;2022-08-14T06:38:08;98542.25;;;26.43;65.41
38900;BME280;24660;43.238;26.576;2022-08-14T06:40:34;98546.41;;;26.45;65.02
38900;BME280;24660;43.238;26.576;2022-08-14T06:43:02;98546.16;;;26.80;64.30
38900;BME280;24660;43.238;26.576;2022-08-14T06:45:27;98541.31;;;26.87;63.23
38900;BME280;24660;43.238;26.576;2022-08-14T06:47:53;98537.00;;;27.08;62.90
38900;BME280;24660;43.238;26.576;2022-08-14T06:50:20;98533.81;;;27.16;62.35
38900;BME280;24660;43.238;26.576;2022-08-14T06:52:45;98531.28;;;27.10;63.07
38900;BME280;24660;43.238;26.576;2022-08-14T06:55:12;98536.81;;;26.98;63.19
38900;BME280;24660;43.238;26.576;2022-08-14T06:57:40;98530.53;;;26.81;63.24
38900;BME280;24660;43.238;26.576;2022-08-14T07:00:06;98529.09;;;26.95;63.36
38900;BME280;24660;43.238;26.576;2022-08-14T07:02:32;98526.97;;;26.80;63.63
38900;BME280;24660;43.238;26.576;2022-08-14T07:05:13;98535.31;;;27.24;62.72
38900;BME280;24660;43.238;26.576;2022-08-14T07:07:54;98531.75;;;27.67;61.28
38900;BME280;24660;43.238;26.576;2022-08-14T07:10:19;98536.81;;;27.15;62.49
38900;BME280;24660;43.238;26.576;2022-08-14T07:12:46;98535.31;;;27.24;62.15
38900;BME280;24660;43.238;26.576;2022-08-14T07:15:11;98531.94;;;27.17;62.82
38900;BME280;24660;43.238;26.576;2022-08-14T07:17:45;98521.63;;;27.29;62.88
38900;BME280;24660;43.238;26.576;2022-08-14T07:20:10;98528.19;;;27.67;60.95
38900;BME280;24660;43.238;26.576;2022-08-14T07:22:35;98522.47;;;27.30;62.57
38900;BME280;24660;43.238;26.576;2022-08-14T07:25:01;98526.66;;;27.15;64.34
38900;BME280;24660;43.238;26.576;2022-08-14T07:27:26;98522.78;;;27.11;63.47
38900;BME280;24660;43.238;26.576;2022-08-14T07:29:51;98525.75;;;27.48;61.86
38900;BME280;24660;43.238;26.576;2022-08-14T07:32:16;98518.00;;;27.89;61.01
38900;BME280;24660;43.238;26.576;2022-08-14T07:34:42;98515.34;;;28.26;59.99
38900;BME280;24660;43.238;26.576;2022-08-14T07:37:07;98517.63;;;28.07;61.19
38900;BME280;24660;43.238;26.576;2022-08-14T07:39:36;98520.25;;;28.51;59.26
38900;BME280;24660;43.238;26.576;2022-08-14T07:42:01;98529.22;;;28.74;58.71
38900;BME280;24660;43.238;26.576;2022-08-14T07:44:26;98524.00;;;28.72;58.80
38900;BME280;24660;43.238;26.576;2022-08-14T07:46:53;98524.59;;;29.16;57.86
38900;BME280;24660;43.238;26.576;2022-08-14T07:49:19;98525.13;;;29.76;56.98
38900;BME280;24660;43.238;26.576;2022-08-14T07:51:45;98524.69;;;30.09;55.23
38900;BME280;24660;43.238;26.576;2022-08-14T07:54:10;98520.22;;;29.88;55.47
38900;BME280;24660;43.238;26.576;2022-08-14T07:56:36;98517.88;;;29.49;55.63
38900;BME280;24660;43.238;26.576;2022-08-14T07:59:01;98517.72;;;28.82;57.03
38900;BME280;24660;43.238;26.576;2022-08-14T08:01:27;98511.91;;;29.15;57.15
38900;BME280;24660;43.238;26.576;2022-08-14T08:03:54;98519.66;;;29.23;57.29
38900;BME280;24660;43.238;26.576;2022-08-14T08:06:23;98517.38;;;29.68;55.58
38900;BME280;24660;43.238;26.576;2022-08-14T08:08:49;98517.16;;;29.79;54.85
38900;BME280;24660;43.238;26.576;2022-08-14T08:11:17;98513.66;;;30.25;54.44
38900;BME280;24660;43.238;26.576;2022-08-14T08:13:43;98509.22;;;30.03;54.36
38900;BME280;24660;43.238;26.576;2022-08-14T08:16:09;98503.59;;;29.63;55.72
38900;BME280;24660;43.238;26.576;2022-08-14T08:18:35;98502.59;;;29.99;55.09
38900;BME280;24660;43.238;26.576;2022-08-14T08:21:00;98500.25;;;29.55;56.09
38900;BME280;24660;43.238;26.576;2022-08-14T08:23:28;98492.91;;;28.72;57.60
38900;BME280;24660;43.238;26.576;2022-08-14T08:25:54;98489.63;;;29.17;57.53
38900;BME280;24660;43.238;26.576;2022-08-14T08:28:21;98487.84;;;29.48;56.29
38900;BME280;24660;43.238;26.576;2022-08-14T08:30:50;98491.81;;;29.93;54.95
38900;BME280;24660;43.238;26.576;2022-08-14T08:33:17;98489.44;;;30.42;53.90
38900;BME280;24660;43.238;26.576;2022-08-14T08:35:43;98484.44;;;30.85;53.39
38900;BME280;24660;43.238;26.576;2022-08-14T08:38:10;98483.34;;;30.55;53.22
38900;BME280;24660;43.238;26.576;2022-08-14T08:40:38;98473.41;;;30.75;51.53
38900;BME280;24660;43.238;26.576;2022-08-14T08:43:05;98466.72;;;30.96;51.71
38900;BME280;24660;43.238;26.576;2022-08-14T08:45:31;98460.47;;;30.19;52.88
38900;BME280;24660;43.238;26.576;2022-08-14T08:47:57;98459.03;;;30.88;52.21
38900;BME280;24660;43.238;26.576;2022-08-14T08:50:24;98457.97;;;32.03;49.91
38900;BME280;24660;43.238;26.576;2022-08-14T08:52:54;98456.25;;;32.12;48.96
38900;BME280;24660;43.238;26.576;2022-08-14T08:55:24;98444.38;;;32.11;49.33
38900;BME280;24660;43.238;26.576;2022-08-14T08:57:57;98447.63;;;32.18;49.50
38900;BME280;24660;43.238;26.576;2022-08-14T09:00:23;98443.97;;;32.23;48.74
38900;BME280;24660;43.238;26.576;2022-08-14T09:02:53;98432.31;;;31.48;49.19
38900;BME280;24660;43.238;26.576;2022-08-14T09:05:19;98432.09;;;31.88;48.39
38900;BME280;24660;43.238;26.576;2022-08-14T09:07:44;98423.75;;;31.94;47.99
38900;BME280;24660;43.238;26.576;2022-08-14T09:10:09;98414.97;;;30.62;50.36
38900;BME280;24660;43.238;26.576;2022-08-14T09:12:35;98410.38;;;31.12;49.63
38900;BME280;24660;43.238;26.576;2022-08-14T09:15:02;98405.09;;;31.75;48.83
38900;BME280;24660;43.238;26.576;2022-08-14T09:17:27;98398.44;;;32.15;47.72
38900;BME280;24660;43.238;26.576;2022-08-14T09:19:53;98394.69;;;33.12;45.51
38900;BME280;24660;43.238;26.576;2022-08-14T09:22:18;98406.19;;;33.19;45.79
38900;BME280;24660;43.238;26.576;2022-08-14T09:24:44;98393.56;;;33.13;46.15
38900;BME280;24660;43.238;26.576;2022-08-14T09:27:11;98400.53;;;32.58;46.25
38900;BME280;24660;43.238;26.576;2022-08-14T09:29:36;98393.75;;;32.98;46.46
38900;BME280;24660;43.238;26.576;2022-08-14T09:32:02;98393.88;;;32.59;46.25
38900;BME280;24660;43.238;26.576;2022-08-14T09:34:35;98382.75;;;32.40;46.45
38900;BME280;24660;43.238;26.576;2022-08-14T09:37:17;98380.03;;;32.01;47.87
38900;BME280;24660;43.238;26.576;2022-08-14T09:45:20;98372.56;;;31.08;50.05
38900;BME280;24660;43.238;26.576;2022-08-14T09:47:53;98372.25;;;30.04;51.88
38900;BME280;24660;43.238;26.576;2022-08-14T09:52:48;98380.81;;;30.28;51.83
38900;BME280;24660;43.238;26.576;2022-08-14T09:55:15;98388.50;;;30.00;52.49
38900;BME280;24660;43.238;26.576;2022-08-14T09:57:42;98394.75;;;29.45;55.95
38900;BME280;24660;43.238;26.576;2022-08-14T10:00:10;98385.50;;;28.88;56.36
38900;BME280;24660;43.238;26.576;2022-08-14T10:02:36;98383.09;;;26.88;63.31
38900;BME280;24660;43.238;26.576;2022-08-14T10:05:03;98390.03;;;26.35;66.61
38900;BME280;24660;43.238;26.576;2022-08-14T10:07:31;98386.25;;;25.86;67.07
38900;BME280;24660;43.238;26.576;2022-08-14T10:09:57;98390.25;;;25.50;67.20
38900;BME280;24660;43.238;26.576;2022-08-14T10:12:22;98402.19;;;25.03;71.88
38900;BME280;24660;43.238;26.576;2022-08-14T10:14:48;98423.78;;;24.65;77.01
38900;BME280;24660;43.238;26.576;2022-08-14T10:17:20;98445.41;;;23.89;91.35
38900;BME280;24660;43.238;26.576;2022-08-14T10:19:47;98479.53;;;22.40;100.00
38900;BME280;24660;43.238;26.576;2022-08-14T10:22:12;98493.56;;;21.43;100.00
38900;BME280;24660;43.238;26.576;2022-08-14T10:24:41;98526.06;;;21.11;100.00
38900;BME280;24660;43.238;26.576;2022-08-14T10:27:14;98566.44;;;20.94;100.00
38900;BME280;24660;43.238;26.576;2022-08-14T10:29:41;98585.06;;;20.91;100.00
38900;BME280;24660;43.238;26.576;2022-08-14T10:32:07;98616.16;;;20.35;100.00
38900;BME280;24660;43.238;26.576;2022-08-14T10:36:45;98641.09;;;19.50;100.00
38900;BME280;24660;43.238;26.576;2022-08-14T10:41:41;98671.16;;;19.20;100.00
38900;BME280;24660;43.238;26.576;2022-08-14T10:44:08;98702.66;;;19.00;100.00
38900;BME280;24660;43.238;26.576;2022-08-14T10:46:38;98695.53;;;18.71;100.00
38900;BME280;24660;43.238;26.576;2022-08-14T10:49:05;98687.09;;;18.59;100.00
38900;BME280;24660;43.238;26.576;2022-08-14T10:51:33;98701.97;;;18.91;100.00
38900;BME280;24660;43.238;26.576;2022-08-14T10:54:03;98701.44;;;18.60;100.00
38900;BME280;24660;43.238;26.576;2022-08-14T10:56:30;98707.59;;;18.90;100.00
38900;BME280;24660;43.238;26.576;2022-08-14T10:58:59;98706.97;;;19.16;100.00
38900;BME280;24660;43.238;26.576;2022-08-14T11:01:29;98712.66;;;19.27;100.00
38900;BME280;24660;43.238;26.576;2022-08-14T11:03:54;98713.78;;;19.68;100.00
38900;BME280;24660;43.238;26.576;2022-08-14T11:06:20;98710.94;;;19.48;100.00
38900;BME280;24660;43.238;26.576;2022-08-14T11:08:47;98699.59;;;19.66;100.00
38900;BME280;24660;43.238;26.576;2022-08-14T11:11:13;98683.69;;;19.56;100.00
38900;BME280;24660;43.238;26.576;2022-08-14T11:13:40;98659.13;;;19.64;100.00
38900;BME280;24660;43.238;26.576;2022-08-14T11:16:07;98658.88;;;20.07;100.00
38900;BME280;24660;43.238;26.576;2022-08-14T11:18:33;98637.75;;;20.70;100.00
38900;BME280;24660;43.238;26.576;2022-08-14T11:21:00;98619.13;;;20.93;100.00
38900;BME280;24660;43.238;26.576;2022-08-14T11:23:29;98602.28;;;21.56;100.00
38900;BME280;24660;43.238;26.576;2022-08-14T11:25:55;98534.41;;;21.29;100.00
38900;BME280;24660;43.238;26.576;2022-08-14T11:28:22;98504.13;;;21.64;100.00
38900;BME280;24660;43.238;26.576;2022-08-14T11:30:48;98497.38;;;22.11;100.00
38900;BME280;24660;43.238;26.576;2022-08-14T11:33:14;98492.66;;;22.25;100.00
38900;BME280;24660;43.238;26.576;2022-08-14T11:35:39;98500.84;;;21.87;100.00
38900;BME280;24660;43.238;26.576;2022-08-14T11:38:06;98498.94;;;22.26;100.00
38900;BME280;24660;43.238;26.576;2022-08-14T11:40:34;98511.50;;;22.20;100.00
38900;BME280;24660;43.238;26.576;2022-08-14T11:43:00;98491.78;;;22.49;100.00
38900;BME280;24660;43.238;26.576;2022-08-14T11:45:27;98484.25;;;22.27;100.00
38900;BME280;24660;43.238;26.576;2022-08-14T11:47:54;98478.50;;;22.78;100.00
38900;BME280;24660;43.238;26.576;2022-08-14T11:52:47;98441.94;;;23.22;100.00
38900;BME280;24660;43.238;26.576;2022-08-14T11:55:13;98434.28;;;23.31;100.00
38900;BME280;24660;43.238;26.576;2022-08-14T11:57:40;98428.69;;;23.56;100.00
38900;BME280;24660;43.238;26.576;2022-08-14T12:00:07;98433.34;;;23.97;100.00
38900;BME280;24660;43.238;26.576;2022-08-14T12:02:34;98418.50;;;24.75;100.00
38900;BME280;24660;43.238;26.576;2022-08-14T12:04:59;98431.09;;;25.39;100.00
38900;BME280;24660;43.238;26.576;2022-08-14T12:07:25;98416.97;;;25.31;100.00
38900;BME280;24660;43.238;26.576;2022-08-14T12:09:51;98408.09;;;25.24;100.00
38900;BME280;24660;43.238;26.576;2022-08-14T12:12:21;98412.03;;;25.16;100.00
38900;BME280;24660;43.238;26.576;2022-08-14T12:17:16;98438.72;;;25.37;100.00
38900;BME280;24660;43.238;26.576;2022-08-14T12:19:42;98434.28;;;25.48;100.00
38900;BME280;24660;43.238;26.576;2022-08-14T12:22:08;98419.59;;;25.54;100.00
38900;BME280;24660;43.238;26.576;2022-08-14T12:24:33;98420.97;;;25.00;100.00
38900;BME280;24660;43.238;26.576;2022-08-14T12:26:59;98429.44;;;24.86;100.00
38900;BME280;24660;43.238;26.576;2022-08-14T12:29:24;98444.81;;;24.64;100.00
38900;BME280;24660;43.238;26.576;2022-08-14T12:31:58;98470.44;;;24.63;100.00
38900;BME280;24660;43.238;26.576;2022-08-14T12:34:28;98491.78;;;24.19;100.00
38900;BME280;24660;43.238;26.576;2022-08-14T12:37:02;98479.25;;;23.88;100.00
38900;BME280;24660;43.238;26.576;2022-08-14T12:39:30;98474.03;;;23.87;100.00
38900;BME280;24660;43.238;26.576;2022-08-14T12:41:55;98476.97;;;23.55;100.00
38900;BME280;24660;43.238;26.576;2022-08-14T12:44:31;98493.72;;;23.10;100.00
38900;BME280;24660;43.238;26.576;2022-08-14T12:47:06;98502.78;;;23.04;100.00
38900;BME280;24660;43.238;26.576;2022-08-14T12:49:46;98497.19;;;22.99;100.00
38900;BME280;24660;43.238;26.576;2022-08-14T12:52:12;98486.22;;;23.36;100.00
38900;BME280;24660;43.238;26.576;2022-08-14T12:54:37;98497.72;;;23.26;100.00
38900;BME280;24660;43.238;26.576;2022-08-14T12:57:05;98494.84;;;23.69;100.00
38900;BME280;24660;43.238;26.576;2022-08-14T12:59:31;98483.41;;;23.91;100.00
38900;BME280;24660;43.238;26.576;2022-08-14T13:01:58;98499.28;;;23.82;100.00
38900;BME280;24660;43.238;26.576;2022-08-14T13:04:24;98486.69;;;23.51;100.00